Observation data for Northfield on 05/24/2019      Previous  Date  Next       Current Mesonet Observations  Soil Data  Daily Summary Page  Observations in Plain Language
KNOR 240500Z 15010KT 25/19 A2989 RMK A01 T02450186  RH  074%=      5-min Rain = 0
KNOR 240505Z 15010KT 25/19 A2989 RMK A01 T02460186  RH  073%=      5-min Rain = 0
KNOR 240510Z 14011KT 25/19 A2988 RMK A01 T02460186  RH  073%=      5-min Rain = 0
KNOR 240515Z 14009G14KT 25/19 A2989 RMK A01 T02470186  RH  073%=      5-min Rain = 0
KNOR 240520Z 15010KT 25/19 A2989 RMK A01 T02460185  RH  073%=      5-min Rain = 0
KNOR 240525Z 15009KT 25/19 A2989 RMK A01 T02460185  RH  073%=      5-min Rain = 0
KNOR 240530Z 15008KT 25/19 A299 RMK A01 T02450185  RH  073%=      5-min Rain = 0
KNOR 240535Z 14007KT 25/19 A299 RMK A01 T02450185  RH  073%=      5-min Rain = 0
KNOR 240540Z 13007KT 24/19 A2989 RMK A01 T02440185  RH  074%=      5-min Rain = 0
KNOR 240545Z 13007KT 24/19 A2989 RMK A01 T02430185  RH  074%=      5-min Rain = 0
KNOR 240550Z 12006KT 24/19 A2989 RMK A01 T02430185  RH  074%=      5-min Rain = 0
KNOR 240555Z 12006KT 24/19 A2989 RMK A01 T02420185  RH  074%=      5-min Rain = 0
KNOR 240600Z 11006KT 24/19 A299 RMK A01 T02410185  RH  075%=      5-min Rain = 0
KNOR 240605Z 10006KT 24/19 A299 RMK A01 T02390185  RH  076%=      5-min Rain = 0
KNOR 240610Z 11006KT 24/19 A299 RMK A01 T02390185  RH  076%=      5-min Rain = 0
KNOR 240615Z 11006KT 24/18 A299 RMK A01 T02380184  RH  076%=      5-min Rain = 0
KNOR 240620Z 11006KT 24/19 A299 RMK A01 T02370185  RH  077%=      5-min Rain = 0
KNOR 240625Z 12006KT 24/19 A299 RMK A01 T02360185  RH  077%=      5-min Rain = 0
KNOR 240630Z 12007KT 24/19 A299 RMK A01 T02350185  RH  077%=      5-min Rain = 0
KNOR 240635Z 14006KT 24/19 A2991 RMK A01 T02350185  RH  077%=      5-min Rain = 0
KNOR 240640Z 27014G21KT 23/16 A2994 RMK A01 T02270163  RH  070%=      5-min Rain = 0
KNOR 240645Z 28013KT 21/15 A2994 RMK A01 T02140151  RH  070%=      5-min Rain = 0
KNOR 240650Z 27010KT 21/16 A2994 RMK A01 T02060155  RH  076%=      5-min Rain = 0
KNOR 240655Z 27008KT 20/16 A2994 RMK A01 T02000158  RH  081%=      5-min Rain = 0
KNOR 240700Z 28007KT 19/16 A2994 RMK A01 T01940160  RH  085%=      5-min Rain = 0.01
KNOR 240705Z 26003KT 19/16 A2993 RMK A01 T01900162  RH  088%=      5-min Rain = 0.01
KNOR 240710Z 21002KT 19/16 A2993 RMK A01 T01880163  RH  090%=      5-min Rain = 0
KNOR 240715Z 23004KT 19/16 A2993 RMK A01 T01880164  RH  091%=      5-min Rain = 0
KNOR 240720Z 23004KT 19/17 A2993 RMK A01 T01870165  RH  091%=      5-min Rain = 0
KNOR 240725Z 23005KT 19/17 A2993 RMK A01 T01880165  RH  091%=      5-min Rain = 0
KNOR 240730Z 22002KT 19/17 A2993 RMK A01 T01870166  RH  092%=      5-min Rain = 0
KNOR 240735Z 28004KT 19/17 A2993 RMK A01 T01870167  RH  092%=      5-min Rain = 0
KNOR 240740Z 25004KT 19/17 A2993 RMK A01 T01860167  RH  093%=      5-min Rain = 0
KNOR 240745Z 26003KT 19/17 A2993 RMK A01 T01850167  RH  094%=      5-min Rain = 0
KNOR 240750Z 28002KT 19/17 A2993 RMK A01 T01850167  RH  094%=      5-min Rain = 0
KNOR 240755Z 35001KT 19/17 A2992 RMK A01 T01850167  RH  094%=      5-min Rain = 0
KNOR 240800Z 08004KT 19/17 A2992 RMK A01 T01850168  RH  094%=      5-min Rain = 0
KNOR 240805Z 08006KT 19/17 A2991 RMK A01 T01850169  RH  095%=      5-min Rain = 0
KNOR 240810Z 08006KT 19/17 A2991 RMK A01 T01850169  RH  095%=      5-min Rain = 0
KNOR 240815Z 07005KT 19/17 A2991 RMK A01 T01850169  RH  095%=      5-min Rain = 0
KNOR 240820Z 30007KT 18/17 A2992 RMK A01 T01840169  RH  095%=      5-min Rain = 0
KNOR 240825Z 36003KT 18/17 A2992 RMK A01 T01840168  RH  095%=      5-min Rain = 0
KNOR 240830Z 32002KT 18/17 A2993 RMK A01 T01840169  RH  095%=      5-min Rain = 0
KNOR 240835Z 07005KT 18/17 A2992 RMK A01 T01840169  RH  095%=      5-min Rain = 0
KNOR 240840Z 34001KT 19/17 A2993 RMK A01 T01850170  RH  095%=      5-min Rain = 0
KNOR 240845Z 10002KT 19/17 A2992 RMK A01 T01850170  RH  095%=      5-min Rain = 0
KNOR 240850Z 08002KT 19/17 A2992 RMK A01 T01860170  RH  095%=      5-min Rain = 0
KNOR 240855Z 17001KT 19/17 A2993 RMK A01 T01860171  RH  095%=      5-min Rain = 0
KNOR 240900Z 22002KT 19/17 A2992 RMK A01 T01860170  RH  095%=      5-min Rain = 0
KNOR 240905Z 23005KT 18/17 A2992 RMK A01 T01840169  RH  096%=      5-min Rain = 0
KNOR 240910Z 21004KT 18/17 A2992 RMK A01 T01830169  RH  096%=      5-min Rain = 0.01
KNOR 240915Z 12002KT 18/17 A2991 RMK A01 T01830168  RH  096%=      5-min Rain = 0
KNOR 240920Z 24002KT 18/17 A2992 RMK A01 T01820168  RH  096%=      5-min Rain = 0
KNOR 240925Z 28001KT 18/17 A2992 RMK A01 T01820168  RH  096%=      5-min Rain = 0
KNOR 240930Z 14001KT 18/17 A2992 RMK A01 T01820169  RH  097%=      5-min Rain = 0
KNOR 240935Z 11002KT 18/17 A2992 RMK A01 T01820169  RH  097%=      5-min Rain = 0
KNOR 240940Z 12004KT 18/17 A2991 RMK A01 T01830169  RH  097%=      5-min Rain = 0
KNOR 240945Z 12005KT 18/17 A2991 RMK A01 T01830169  RH  097%=      5-min Rain = 0
KNOR 240950Z 12004KT 18/17 A2992 RMK A01 T01840170  RH  096%=      5-min Rain = 0
KNOR 240955Z 10003KT 18/17 A2992 RMK A01 T01840170  RH  096%=      5-min Rain = 0
KNOR 241000Z 13001KT 19/17 A2992 RMK A01 T01850171  RH  096%=      5-min Rain = 0
KNOR 241005Z 27002KT 19/17 A2993 RMK A01 T01850171  RH  096%=      5-min Rain = 0
KNOR 241010Z 27001KT 19/17 A2993 RMK A01 T01850171  RH  096%=      5-min Rain = 0
KNOR 241015Z 29006KT 19/17 A2995 RMK A01 T01860172  RH  096%=      5-min Rain = 0
KNOR 241020Z 30005KT 19/17 A2995 RMK A01 T01870173  RH  096%=      5-min Rain = 0
KNOR 241025Z 31001KT 19/17 A2995 RMK A01 T01870173  RH  096%=      5-min Rain = 0.05
KNOR 241030Z 32001KT 19/17 A2995 RMK A01 T01870173  RH  096%=      5-min Rain = 0.01
KNOR 241035Z 27004KT 19/17 A2995 RMK A01 T01880174  RH  096%=      5-min Rain = 0
KNOR 241040Z 26002G7KT 19/17 A2995 RMK A01 T01860172  RH  096%=      5-min Rain = 0
KNOR 241045Z 15002KT 19/17 A2994 RMK A01 T01870173  RH  096%=      5-min Rain = 0
KNOR 241050Z 16003KT 19/17 A2994 RMK A01 T01860172  RH  096%=      5-min Rain = 0
KNOR 241055Z 14002KT 19/17 A2994 RMK A01 T01860172  RH  097%=      5-min Rain = 0
KNOR 241100Z 28001KT 19/17 A2994 RMK A01 T01860173  RH  097%=      5-min Rain = 0
KNOR 241105Z 30001KT 19/17 A2994 RMK A01 T01860173  RH  097%=      5-min Rain = 0
KNOR 241110Z 32001KT 19/17 A2994 RMK A01 T01860173  RH  097%=      5-min Rain = 0
KNOR 241115Z 35001KT 19/17 A2993 RMK A01 T01850172  RH  097%=      5-min Rain = 0
KNOR 241120Z 10002KT 19/17 A2993 RMK A01 T01850173  RH  097%=      5-min Rain = 0
KNOR 241125Z 10004KT 19/17 A2993 RMK A01 T01850173  RH  097%=      5-min Rain = 0
KNOR 241130Z 11004KT 19/17 A2993 RMK A01 T01860173  RH  097%=      5-min Rain = 0
KNOR 241135Z 11004KT 19/17 A2993 RMK A01 T01850173  RH  097%=      5-min Rain = 0
KNOR 241140Z 11004KT 19/17 A2993 RMK A01 T01860174  RH  097%=      5-min Rain = 0
KNOR 241145Z 11004KT 19/17 A2993 RMK A01 T01860174  RH  098%=      5-min Rain = 0
KNOR 241150Z 11003KT 19/17 A2993 RMK A01 T01860174  RH  098%=      5-min Rain = 0
KNOR 241155Z 12005KT 19/18 A2993 RMK A01 T01870175  RH  098%=      5-min Rain = 0
KNOR 241200Z 12007KT 19/18 A2993 RMK A01 T01880176  RH  098%=      5-min Rain = 0
KNOR 241205Z 12007KT 19/18 A2993 RMK A01 T01890177  RH  098%=      5-min Rain = 0
KNOR 241210Z 11006KT 19/18 A2993 RMK A01 T01900178  RH  098%=      5-min Rain = 0
KNOR 241215Z 11006KT 19/18 A2993 RMK A01 T01910178  RH  097%=      5-min Rain = 0
KNOR 241220Z 12007KT 19/18 A2993 RMK A01 T01920179  RH  097%=      5-min Rain = 0
KNOR 241225Z 12006KT 19/18 A2993 RMK A01 T01930181  RH  097%=      5-min Rain = 0
KNOR 241230Z 12005KT 20/18 A2993 RMK A01 T01950182  RH  097%=      5-min Rain = 0
KNOR 241235Z 12004KT 20/18 A2994 RMK A01 T01970184  RH  097%=      5-min Rain = 0
KNOR 241240Z 13005KT 20/19 A2994 RMK A01 T01990186  RH  097%=      5-min Rain = 0
KNOR 241245Z 12007KT 20/19 A2994 RMK A01 T02010188  RH  097%=      5-min Rain = 0
KNOR 241250Z 12007KT 20/19 A2994 RMK A01 T02020188  RH  097%=      5-min Rain = 0
KNOR 241255Z 12006KT 20/19 A2994 RMK A01 T02020188  RH  097%=      5-min Rain = 0
KNOR 241300Z 13007KT 20/19 A2994 RMK A01 T02020188  RH  096%=      5-min Rain = 0
KNOR 241305Z 13006KT 20/19 A2994 RMK A01 T02030187  RH  096%=      5-min Rain = 0
KNOR 241310Z 13006KT 20/19 A2994 RMK A01 T02030188  RH  096%=      5-min Rain = 0
KNOR 241315Z 13006KT 20/19 A2994 RMK A01 T02040188  RH  096%=      5-min Rain = 0
KNOR 241320Z 13006KT 20/19 A2994 RMK A01 T02040189  RH  096%=      5-min Rain = 0
KNOR 241325Z 13007KT 21/19 A2994 RMK A01 T02060190  RH  096%=      5-min Rain = 0
KNOR 241330Z 14008KT 21/19 A2995 RMK A01 T02080191  RH  095%=      5-min Rain = 0
KNOR 241335Z 14009KT 21/19 A2995 RMK A01 T02090192  RH  095%=      5-min Rain = 0
KNOR 241340Z 14009KT 21/19 A2994 RMK A01 T02100192  RH  094%=      5-min Rain = 0
KNOR 241345Z 15009KT 21/19 A2994 RMK A01 T02140193  RH  093%=      5-min Rain = 0
KNOR 241350Z 15009KT 21/19 A2994 RMK A01 T02140192  RH  093%=      5-min Rain = 0
KNOR 241355Z 16010KT 21/19 A2994 RMK A01 T02140192  RH  092%=      5-min Rain = 0
KNOR 241400Z 15010KT 21/19 A2994 RMK A01 T02140192  RH  092%=      5-min Rain = 0
KNOR 241405Z 15011KT 21/19 A2994 RMK A01 T02140191  RH  092%=      5-min Rain = 0
KNOR 241410Z 15011KT 21/19 A2994 RMK A01 T02140192  RH  092%=      5-min Rain = 0
KNOR 241415Z 15010KT 22/20 A2994 RMK A01 T02180195  RH  092%=      5-min Rain = 0
KNOR 241420Z 16012KT 22/20 A2994 RMK A01 T02190195  RH  091%=      5-min Rain = 0
KNOR 241425Z 16011G16KT 22/20 A2994 RMK A01 T02200196  RH  091%=      5-min Rain = 0
KNOR 241430Z 16013G18KT 22/20 A2994 RMK A01 T02220196  RH  090%=      5-min Rain = 0
KNOR 241435Z 16013KT 22/20 A2994 RMK A01 T02220196  RH  090%=      5-min Rain = 0
KNOR 241440Z 16014G19KT 22/20 A2994 RMK A01 T02210196  RH  091%=      5-min Rain = 0
KNOR 241445Z 16011G18KT 22/20 A2994 RMK A01 T02230198  RH  091%=      5-min Rain = 0
KNOR 241450Z 16013KT 22/20 A2995 RMK A01 T02230198  RH  091%=      5-min Rain = 0
KNOR 241455Z 16013KT 23/20 A2995 RMK A01 T02250200  RH  091%=      5-min Rain = 0
KNOR 241500Z 16012G17KT 23/20 A2995 RMK A01 T02290201  RH  090%=      5-min Rain = 0
KNOR 241505Z 17012G17KT 23/20 A2995 RMK A01 T02320202  RH  088%=      5-min Rain = 0
KNOR 241510Z 17011KT 24/20 A2995 RMK A01 T02370203  RH  086%=      5-min Rain = 0
KNOR 241515Z 16013KT 24/20 A2995 RMK A01 T02440203  RH  083%=      5-min Rain = 0
KNOR 241520Z 16013G18KT 24/20 A2994 RMK A01 T02390199  RH  083%=      5-min Rain = 0
KNOR 241525Z 17011G16KT 24/20 A2994 RMK A01 T02410201  RH  083%=      5-min Rain = 0
KNOR 241530Z 16012G17KT 24/20 A2994 RMK A01 T02410200  RH  082%=      5-min Rain = 0
KNOR 241535Z 16014G19KT 24/20 A2994 RMK A01 T02400199  RH  082%=      5-min Rain = 0
KNOR 241540Z 16013KT 24/20 A2995 RMK A01 T02400200  RH  083%=      5-min Rain = 0
KNOR 241545Z 16014KT 24/20 A2994 RMK A01 T02400198  RH  082%=      5-min Rain = 0
KNOR 241550Z 17013G19KT 24/20 A2994 RMK A01 T02430199  RH  081%=      5-min Rain = 0
KNOR 241555Z 17014G19KT 24/20 A2994 RMK A01 T02430199  RH  081%=      5-min Rain = 0
KNOR 241600Z 16014G19KT 25/20 A2994 RMK A01 T02450200  RH  080%=      5-min Rain = 0
KNOR 241605Z 16014G19KT 25/20 A2994 RMK A01 T02450198  RH  080%=      5-min Rain = 0
KNOR 241610Z 16013G18KT 25/20 A2994 RMK A01 T02460201  RH  080%=      5-min Rain = 0
KNOR 241615Z 17012G17KT 25/20 A2994 RMK A01 T02500201  RH  079%=      5-min Rain = 0
KNOR 241620Z 17013KT 25/20 A2994 RMK A01 T02480199  RH  079%=      5-min Rain = 0
KNOR 241625Z 17014G19KT 25/20 A2994 RMK A01 T02470199  RH  079%=      5-min Rain = 0
KNOR 241630Z 17013G18KT 25/20 A2994 RMK A01 T02480200  RH  079%=      5-min Rain = 0
KNOR 241635Z 18011G18KT 25/20 A2994 RMK A01 T02480201  RH  080%=      5-min Rain = 0
KNOR 241640Z 17012G19KT 25/20 A2994 RMK A01 T02470200  RH  079%=      5-min Rain = 0
KNOR 241645Z 18013G19KT 25/20 A2994 RMK A01 T02470199  RH  079%=      5-min Rain = 0
KNOR 241650Z 18014G19KT 25/20 A2994 RMK A01 T02480199  RH  079%=      5-min Rain = 0
KNOR 241655Z 18014G19KT 25/20 A2994 RMK A01 T02500200  RH  078%=      5-min Rain = 0
KNOR 241700Z 18015G20KT 25/20 A2994 RMK A01 T02500199  RH  078%=      5-min Rain = 0
KNOR 241705Z 18015KT 25/20 A2994 RMK A01 T02520200  RH  077%=      5-min Rain = 0
KNOR 241710Z 17014G20KT 26/20 A2994 RMK A01 T02550201  RH  076%=      5-min Rain = 0
KNOR 241715Z 18014KT 25/20 A2994 RMK A01 T02530199  RH  076%=      5-min Rain = 0
KNOR 241720Z 18013G19KT 25/20 A2994 RMK A01 T02530200  RH  077%=      5-min Rain = 0
KNOR 241725Z 18013KT 26/20 A2994 RMK A01 T02550201  RH  077%=      5-min Rain = 0
KNOR 241730Z 17011G16KT 26/20 A2994 RMK A01 T02620204  RH  075%=      5-min Rain = 0
KNOR 241735Z 17015G21KT 26/20 A2994 RMK A01 T02590201  RH  075%=      5-min Rain = 0
KNOR 241740Z 17013G18KT 26/20 A2994 RMK A01 T02580202  RH  075%=      5-min Rain = 0
KNOR 241745Z 18013KT 26/20 A2994 RMK A01 T02640204  RH  074%=      5-min Rain = 0
KNOR 241750Z 17013G19KT 26/20 A2994 RMK A01 T02640203  RH  074%=      5-min Rain = 0
KNOR 241755Z 18014G19KT 26/20 A2994 RMK A01 T02570200  RH  075%=      5-min Rain = 0
KNOR 241800Z 18012G17KT 26/20 A2994 RMK A01 T02590202  RH  075%=      5-min Rain = 0
KNOR 241805Z 17012KT 26/20 A2994 RMK A01 T02630203  RH  074%=      5-min Rain = 0
KNOR 241810Z 18013G19KT 27/21 A2994 RMK A01 T02700206  RH  072%=      5-min Rain = 0
KNOR 241815Z 17014KT 27/20 A2994 RMK A01 T02670203  RH  072%=      5-min Rain = 0
KNOR 241820Z 17014KT 26/20 A2993 RMK A01 T02620202  RH  074%=      5-min Rain = 0
KNOR 241825Z 17013G18KT 26/20 A2993 RMK A01 T02640204  RH  074%=      5-min Rain = 0
KNOR 241830Z 17014KT 27/20 A2992 RMK A01 T02680204  RH  072%=      5-min Rain = 0
KNOR 241835Z 17016KT 26/20 A2992 RMK A01 T02630201  RH  073%=      5-min Rain = 0
KNOR 241840Z 17015KT 27/20 A2992 RMK A01 T02670203  RH  072%=      5-min Rain = 0
KNOR 241845Z 17014KT 26/20 A2992 RMK A01 T02640202  RH  073%=      5-min Rain = 0
KNOR 241850Z 17012KT 27/20 A2992 RMK A01 T02670204  RH  073%=      5-min Rain = 0
KNOR 241855Z 17013G19KT 27/20 A2992 RMK A01 T02700204  RH  071%=      5-min Rain = 0
KNOR 241900Z 17015G20KT 28/21 A2991 RMK A01 T02770206  RH  069%=      5-min Rain = 0
KNOR 241905Z 16016KT 28/20 A2991 RMK A01 T02770203  RH  068%=      5-min Rain = 0
KNOR 241910Z 17014G20KT 27/20 A2991 RMK A01 T02710202  RH  070%=      5-min Rain = 0
KNOR 241915Z 17013G18KT 27/20 A2992 RMK A01 T02720203  RH  070%=      5-min Rain = 0
KNOR 241920Z 17013G18KT 27/20 A2992 RMK A01 T02720203  RH  070%=      5-min Rain = 0
KNOR 241925Z 18012KT 27/20 A2991 RMK A01 T02710203  RH  071%=      5-min Rain = 0
KNOR 241930Z 17013KT 27/20 A2991 RMK A01 T02670201  RH  071%=      5-min Rain = 0
KNOR 241935Z 17014G19KT 27/20 A2991 RMK A01 T02660201  RH  072%=      5-min Rain = 0
KNOR 241940Z 17014KT 27/20 A2991 RMK A01 T02650200  RH  072%=      5-min Rain = 0
KNOR 241945Z 17011G18KT 27/20 A299 RMK A01 T02660202  RH  072%=      5-min Rain = 0
KNOR 241950Z 16013G18KT 27/20 A299 RMK A01 T02650201  RH  072%=      5-min Rain = 0
KNOR 241955Z 16013KT 26/20 A2989 RMK A01 T02640201  RH  072%=      5-min Rain = 0
KNOR 242000Z 16014KT 26/20 A299 RMK A01 T02630200  RH  072%=      5-min Rain = 0
KNOR 242005Z 15012KT 26/20 A2989 RMK A01 T02610200  RH  073%=      5-min Rain = 0
KNOR 242010Z 16011KT 26/20 A299 RMK A01 T02590199  RH  074%=      5-min Rain = 0
KNOR 242015Z 16010KT 26/20 A299 RMK A01 T02580200  RH  075%=      5-min Rain = 0
KNOR 242020Z 16009KT 26/20 A2991 RMK A01 T02570200  RH  075%=      5-min Rain = 0
KNOR 242025Z 15009KT 26/20 A299 RMK A01 T02560200  RH  075%=      5-min Rain = 0
KNOR 242030Z 15010KT 26/20 A299 RMK A01 T02550200  RH  076%=      5-min Rain = 0
KNOR 242035Z 16011KT 26/20 A299 RMK A01 T02550200  RH  076%=      5-min Rain = 0
KNOR 242040Z 16010KT 25/20 A299 RMK A01 T02540200  RH  076%=      5-min Rain = 0
KNOR 242045Z 16011KT 25/20 A2991 RMK A01 T02530200  RH  077%=      5-min Rain = 0
KNOR 242050Z 15007G12KT 25/20 A299 RMK A01 T02520201  RH  078%=      5-min Rain = 0
KNOR 242055Z 14008KT 25/20 A2989 RMK A01 T02500201  RH  078%=      5-min Rain = 0
KNOR 242100Z 16008KT 25/20 A299 RMK A01 T02500201  RH  079%=      5-min Rain = 0
KNOR 242105Z 15007KT 25/20 A2989 RMK A01 T02490202  RH  079%=      5-min Rain = 0
KNOR 242110Z 16006KT 25/20 A2991 RMK A01 T02460203  RH  082%=      5-min Rain = 0.01
KNOR 242115Z 19005KT 24/21 A2992 RMK A01 T02410205  RH  085%=      5-min Rain = 0.01
KNOR 242120Z 08003G9KT 24/21 A2991 RMK A01 T02370206  RH  088%=      5-min Rain = 0.16
KNOR 242125Z 09012KT 23/21 A2991 RMK A01 T02290205  RH  092%=      5-min Rain = 0.05
KNOR 242130Z 12007KT 23/20 A2991 RMK A01 T02250195  RH  088%=      5-min Rain = 0.02
KNOR 242135Z 12008KT 22/18 A299 RMK A01 T02170183  RH  086%=      5-min Rain = 0.08
KNOR 242140Z 16008G14KT 21/18 A2991 RMK A01 T02110182  RH  088%=      5-min Rain = 0.13
KNOR 242145Z 15011G21KT 20/17 A299 RMK A01 T01990165  RH  084%=      5-min Rain = 0.05
KNOR 242150Z 16017KT 19/15 A299 RMK A01 T01910146  RH  079%=      5-min Rain = 0.03
KNOR 242155Z 15015G25KT 18/14 A299 RMK A01 T01840144  RH  081%=      5-min Rain = 0.04
KNOR 242200Z 12006G11KT 17/15 A2985 RMK A01 T01740147  RH  088%=      5-min Rain = 0.01
KNOR 242205Z 13010G17KT 17/15 A2985 RMK A01 T01730147  RH  088%=      5-min Rain = 0.01
KNOR 242210Z 12013G22KT 18/15 A2986 RMK A01 T01770147  RH  087%=      5-min Rain = 0.01
KNOR 242215Z 12009KT 18/15 A2986 RMK A01 T01820150  RH  086%=      5-min Rain = 0.02
KNOR 242220Z 15012KT 18/15 A2986 RMK A01 T01790153  RH  088%=      5-min Rain = 0.02
KNOR 242225Z 15013KT 18/16 A2986 RMK A01 T01770155  RH  091%=      5-min Rain = 0.01
KNOR 242230Z 14012G18KT 18/16 A2985 RMK A01 T01770156  RH  092%=      5-min Rain = 0.01
KNOR 242235Z 13016KT 18/15 A2984 RMK A01 T01750154  RH  092%=      5-min Rain = 0.01
KNOR 242240Z 14013G18KT 18/15 A2984 RMK A01 T01750153  RH  091%=      5-min Rain = 0
KNOR 242245Z 17013G18KT 18/15 A2986 RMK A01 T01750152  RH  090%=      5-min Rain = 0.01
KNOR 242250Z 17013G20KT 17/15 A2987 RMK A01 T01720150  RH  091%=      5-min Rain = 0
KNOR 242255Z 15012KT 17/15 A2984 RMK A01 T01700150  RH  092%=      5-min Rain = 0.01
KNOR 242300Z 16012KT 17/15 A2984 RMK A01 T01690152  RH  093%=      5-min Rain = 0.02
KNOR 242305Z 16016G21KT 17/15 A2985 RMK A01 T01680152  RH  094%=      5-min Rain = 0.01
KNOR 242310Z 16018G24KT 17/15 A2985 RMK A01 T01680153  RH  095%=      5-min Rain = 0.01
KNOR 242315Z 14016G23KT 17/15 A2983 RMK A01 T01690154  RH  095%=      5-min Rain = 0.03
KNOR 242320Z 14019G24KT 17/15 A2983 RMK A01 T01680154  RH  096%=      5-min Rain = 0.02
KNOR 242325Z 18019G25KT 17/16 A2987 RMK A01 T01690155  RH  096%=      5-min Rain = 0.01
KNOR 242330Z 17017G22KT 17/16 A2985 RMK A01 T01690156  RH  096%=      5-min Rain = 0.03
KNOR 242335Z 18016G22KT 17/16 A2985 RMK A01 T01700157  RH  096%=      5-min Rain = 0.01
KNOR 242340Z 16012KT 17/16 A2984 RMK A01 T01720158  RH  096%=      5-min Rain = 0.01
KNOR 242345Z 17016G23KT 17/16 A2985 RMK A01 T01710157  RH  096%=      5-min Rain = 0
KNOR 242350Z 16018G24KT 17/16 A2984 RMK A01 T01710157  RH  096%=      5-min Rain = 0.01
KNOR 242355Z 16017G23KT 17/16 A2984 RMK A01 T01710159  RH  097%=      5-min Rain = 0.01
KNOR 250000Z 16024G29KT 17/16 A2984 RMK A01 T01730160  RH  097%=      5-min Rain = 0.01
KNOR 250005Z 16019G27KT 17/16 A2983 RMK A01 T01730160  RH  097%=      5-min Rain = 0.02
KNOR 250010Z 17018G25KT 17/16 A2984 RMK A01 T01730160  RH  097%=      5-min Rain = 0.02
KNOR 250015Z 17018G24KT 17/16 A2985 RMK A01 T01720159  RH  097%=      5-min Rain = 0.02
KNOR 250020Z 15020G27KT 17/16 A2982 RMK A01 T01710158  RH  097%=      5-min Rain = 0.02
KNOR 250025Z 15020G25KT 17/16 A2982 RMK A01 T01710159  RH  097%=      5-min Rain = 0
KNOR 250030Z 16018G25KT 17/16 A2982 RMK A01 T01730160  RH  097%=      5-min Rain = 0
KNOR 250035Z 16019G26KT 18/16 A2983 RMK A01 T01750161  RH  096%=      5-min Rain = 0
KNOR 250040Z 15017G24KT 18/16 A2982 RMK A01 T01750161  RH  096%=      5-min Rain = 0
KNOR 250045Z 16017G24KT 18/16 A2984 RMK A01 T01760162  RH  096%=      5-min Rain = 0
KNOR 250050Z 17017G26KT 18/16 A2986 RMK A01 T01760162  RH  096%=      5-min Rain = 0.01
KNOR 250055Z 16015G20KT 18/16 A2986 RMK A01 T01770162  RH  096%=      5-min Rain = 0
KNOR 250100Z 16022G32KT 18/16 A2985 RMK A01 T01790164  RH  096%=      5-min Rain = 0.01
KNOR 250105Z 16025G31KT 18/17 A2984 RMK A01 T01810165  RH  095%=      5-min Rain = 0.01
KNOR 250110Z 16026G33KT 18/17 A2984 RMK A01 T01830166  RH  094%=      5-min Rain = 0.04
KNOR 250115Z 18023G34KT 18/17 A2987 RMK A01 T01840167  RH  094%=      5-min Rain = 0.01
KNOR 250120Z 18020G28KT 19/17 A2987 RMK A01 T01860167  RH  093%=      5-min Rain = 0.02
KNOR 250125Z 18019G24KT 19/17 A2987 RMK A01 T01860166  RH  092%=      5-min Rain = 0
KNOR 250130Z 18019G25KT 19/17 A2987 RMK A01 T01860165  RH  092%=      5-min Rain = 0.01
KNOR 250135Z 18021G29KT 19/17 A2986 RMK A01 T01860165  RH  092%=      5-min Rain = 0
KNOR 250140Z 18020G31KT 19/16 A2986 RMK A01 T01850164  RH  092%=      5-min Rain = 0.01
KNOR 250145Z 17022G30KT 18/16 A2985 RMK A01 T01830161  RH  091%=      5-min Rain = 0.03
KNOR 250150Z 16022G33KT 18/16 A2985 RMK A01 T01790160  RH  093%=      5-min Rain = 0.03
KNOR 250155Z 16019G26KT 18/16 A2985 RMK A01 T01760156  RH  092%=      5-min Rain = 0.01
KNOR 250200Z 16021G28KT 18/15 A2986 RMK A01 T01760153  RH  090%=      5-min Rain = 0
KNOR 250205Z 16017G23KT 17/15 A2987 RMK A01 T01740152  RH  091%=      5-min Rain = 0
KNOR 250210Z 17015G21KT 17/15 A2988 RMK A01 T01730150  RH  090%=      5-min Rain = 0
KNOR 250215Z 16015G21KT 17/15 A2988 RMK A01 T01740151  RH  090%=      5-min Rain = 0
KNOR 250220Z 16014G21KT 17/15 A2988 RMK A01 T01730152  RH  092%=      5-min Rain = 0
KNOR 250225Z 16016G21KT 17/15 A299 RMK A01 T01730152  RH  092%=      5-min Rain = 0
KNOR 250230Z 16017G23KT 17/15 A299 RMK A01 T01710153  RH  093%=      5-min Rain = 0
KNOR 250235Z 17014G20KT 17/15 A2991 RMK A01 T01710153  RH  093%=      5-min Rain = 0
KNOR 250240Z 18010KT 17/15 A2992 RMK A01 T01710153  RH  093%=      5-min Rain = 0.02
KNOR 250245Z 19015G24KT 17/15 A2994 RMK A01 T01700153  RH  094%=      5-min Rain = 0.05
KNOR 250250Z 19016G25KT 17/15 A2994 RMK A01 T01700154  RH  095%=      5-min Rain = 0.07
KNOR 250255Z 20019G28KT 17/15 A2991 RMK A01 T01690152  RH  094%=      5-min Rain = 0.11
KNOR 250300Z 20010G15KT 17/15 A299 RMK A01 T01670147  RH  092%=      5-min Rain = 0.01
KNOR 250305Z 21009KT 17/15 A299 RMK A01 T01720146  RH  088%=      5-min Rain = 0.03
KNOR 250310Z 17011G16KT 17/15 A299 RMK A01 T01720146  RH  089%=      5-min Rain = 0.04
KNOR 250315Z 17010KT 17/15 A299 RMK A01 T01690146  RH  090%=      5-min Rain = 0.01
KNOR 250320Z 15011KT 17/15 A2989 RMK A01 T01710145  RH  089%=      5-min Rain = 0
KNOR 250325Z 15013G18KT 17/14 A2989 RMK A01 T01710144  RH  088%=      5-min Rain = 0
KNOR 250330Z 14014G19KT 17/14 A2989 RMK A01 T01720144  RH  087%=      5-min Rain = 0
KNOR 250335Z 14015G21KT 17/14 A2989 RMK A01 T01710143  RH  087%=      5-min Rain = 0
KNOR 250340Z 15016KT 17/14 A2989 RMK A01 T01730143  RH  086%=      5-min Rain = 0
KNOR 250345Z 16016KT 17/15 A299 RMK A01 T01730145  RH  087%=      5-min Rain = 0
KNOR 250350Z 16015KT 17/15 A299 RMK A01 T01740147  RH  088%=      5-min Rain = 0
KNOR 250355Z 16013KT 17/15 A2991 RMK A01 T01740148  RH  088%=      5-min Rain = 0
KNOR 250400Z 16011KT 17/15 A2991 RMK A01 T01740148  RH  089%=      5-min Rain = 0
KNOR 250405Z 16012KT 18/15 A2992 RMK A01 T01750149  RH  088%=      5-min Rain = 0
KNOR 250410Z 16011KT 18/15 A2992 RMK A01 T01750150  RH  089%=      5-min Rain = 0
KNOR 250415Z 16011KT 18/15 A2993 RMK A01 T01750151  RH  090%=      5-min Rain = 0
KNOR 250420Z 16010KT 18/15 A2994 RMK A01 T01780152  RH  089%=      5-min Rain = 0
KNOR 250425Z 16009KT 18/15 A2994 RMK A01 T01790153  RH  089%=      5-min Rain = 0
KNOR 250430Z 16009KT 18/15 A2995 RMK A01 T01790154  RH  089%=      5-min Rain = 0
KNOR 250435Z 16008KT 18/15 A2995 RMK A01 T01770154  RH  090%=      5-min Rain = 0
KNOR 250440Z 16007KT 18/15 A2995 RMK A01 T01770154  RH  091%=      5-min Rain = 0
KNOR 250445Z 15005KT 18/15 A2995 RMK A01 T01760154  RH  091%=      5-min Rain = 0
KNOR 250450Z 16003KT 18/15 A2995 RMK A01 T01760154  RH  091%=      5-min Rain = 0
KNOR 250455Z 28002KT 18/15 A2996 RMK A01 T01760154  RH  091%=      5-min Rain = 0

Page generated in 0.0099 seconds.